sensor_id;sensor_type;location;lat;lon;timestamp;P1;durP1;ratioP1;P2;durP2;ratioP2
52866;SDS011;38739;53.324;6.862;2023-04-16T00:02:18;103.88;;;32.78;;
52866;SDS011;38739;53.324;6.862;2023-04-16T00:04:44;133.35;;;36.00;;
52866;SDS011;38739;53.324;6.862;2023-04-16T00:07:10;201.20;;;40.78;;
52866;SDS011;38739;53.324;6.862;2023-04-16T00:09:36;196.95;;;41.70;;
52866;SDS011;38739;53.324;6.862;2023-04-16T00:12:02;186.95;;;43.03;;
52866;SDS011;38739;53.324;6.862;2023-04-16T00:14:28;194.70;;;41.47;;
52866;SDS011;38739;53.324;6.862;2023-04-16T00:16:54;174.05;;;41.40;;
52866;SDS011;38739;53.324;6.862;2023-04-16T00:19:20;200.77;;;42.33;;
52866;SDS011;38739;53.324;6.862;2023-04-16T00:21:46;163.05;;;42.25;;
52866;SDS011;38739;53.324;6.862;2023-04-16T00:24:11;146.75;;;40.22;;
52866;SDS011;38739;53.324;6.862;2023-04-16T00:26:37;217.02;;;44.90;;
52866;SDS011;38739;53.324;6.862;2023-04-16T00:29:03;156.25;;;39.97;;
52866;SDS011;38739;53.324;6.862;2023-04-16T00:31:29;144.90;;;40.40;;
52866;SDS011;38739;53.324;6.862;2023-04-16T00:33:57;181.27;;;43.50;;
52866;SDS011;38739;53.324;6.862;2023-04-16T00:36:23;213.23;;;46.80;;
52866;SDS011;38739;53.324;6.862;2023-04-16T00:38:51;259.83;;;50.15;;
52866;SDS011;38739;53.324;6.862;2023-04-16T00:41:17;161.93;;;42.92;;
52866;SDS011;38739;53.324;6.862;2023-04-16T00:43:42;165.05;;;43.35;;
52866;SDS011;38739;53.324;6.862;2023-04-16T00:46:08;145.73;;;42.67;;
52866;SDS011;38739;53.324;6.862;2023-04-16T00:48:38;194.30;;;46.22;;
52866;SDS011;38739;53.324;6.862;2023-04-16T00:51:06;207.45;;;45.97;;
52866;SDS011;38739;53.324;6.862;2023-04-16T00:53:32;144.32;;;41.92;;
52866;SDS011;38739;53.324;6.862;2023-04-16T00:56:01;179.05;;;44.53;;
52866;SDS011;38739;53.324;6.862;2023-04-16T00:58:28;192.70;;;47.03;;
52866;SDS011;38739;53.324;6.862;2023-04-16T01:00:54;208.57;;;47.30;;
52866;SDS011;38739;53.324;6.862;2023-04-16T01:03:20;161.27;;;43.35;;
52866;SDS011;38739;53.324;6.862;2023-04-16T01:05:46;199.70;;;46.47;;
52866;SDS011;38739;53.324;6.862;2023-04-16T01:08:17;130.23;;;41.78;;
52866;SDS011;38739;53.324;6.862;2023-04-16T01:10:44;239.88;;;45.83;;
52866;SDS011;38739;53.324;6.862;2023-04-16T01:13:10;212.10;;;42.47;;
52866;SDS011;38739;53.324;6.862;2023-04-16T01:15:36;203.82;;;41.83;;
52866;SDS011;38739;53.324;6.862;2023-04-16T01:18:02;249.35;;;45.13;;
52866;SDS011;38739;53.324;6.862;2023-04-16T01:20:36;129.65;;;40.17;;
52866;SDS011;38739;53.324;6.862;2023-04-16T01:23:02;110.53;;;38.45;;
52866;SDS011;38739;53.324;6.862;2023-04-16T01:25:28;213.63;;;42.85;;
52866;SDS011;38739;53.324;6.862;2023-04-16T01:27:53;211.63;;;42.55;;
52866;SDS011;38739;53.324;6.862;2023-04-16T01:30:21;171.77;;;39.58;;
52866;SDS011;38739;53.324;6.862;2023-04-16T01:32:47;167.23;;;38.10;;
52866;SDS011;38739;53.324;6.862;2023-04-16T01:35:12;181.80;;;36.97;;
52866;SDS011;38739;53.324;6.862;2023-04-16T01:37:38;161.85;;;36.08;;
52866;SDS011;38739;53.324;6.862;2023-04-16T01:40:04;285.30;;;39.28;;
52866;SDS011;38739;53.324;6.862;2023-04-16T01:42:30;186.52;;;37.28;;
52866;SDS011;38739;53.324;6.862;2023-04-16T01:44:56;108.30;;;34.30;;
52866;SDS011;38739;53.324;6.862;2023-04-16T01:47:22;153.85;;;35.50;;
52866;SDS011;38739;53.324;6.862;2023-04-16T01:49:47;89.28;;;33.78;;
52866;SDS011;38739;53.324;6.862;2023-04-16T01:52:13;158.32;;;38.47;;
52866;SDS011;38739;53.324;6.862;2023-04-16T01:54:39;135.63;;;37.90;;
52866;SDS011;38739;53.324;6.862;2023-04-16T01:57:05;122.25;;;35.90;;
52866;SDS011;38739;53.324;6.862;2023-04-16T01:59:30;93.28;;;33.65;;
52866;SDS011;38739;53.324;6.862;2023-04-16T02:01:58;88.55;;;31.90;;
52866;SDS011;38739;53.324;6.862;2023-04-16T02:04:32;106.50;;;35.10;;
52866;SDS011;38739;53.324;6.862;2023-04-16T02:06:58;102.13;;;33.85;;
52866;SDS011;38739;53.324;6.862;2023-04-16T02:09:23;79.50;;;30.77;;
52866;SDS011;38739;53.324;6.862;2023-04-16T02:11:49;81.50;;;32.22;;
52866;SDS011;38739;53.324;6.862;2023-04-16T02:14:15;83.60;;;30.67;;
52866;SDS011;38739;53.324;6.862;2023-04-16T02:16:40;76.95;;;29.58;;
52866;SDS011;38739;53.324;6.862;2023-04-16T02:19:06;92.00;;;32.08;;
52866;SDS011;38739;53.324;6.862;2023-04-16T02:21:32;79.85;;;30.98;;
52866;SDS011;38739;53.324;6.862;2023-04-16T02:23:57;92.70;;;31.88;;
52866;SDS011;38739;53.324;6.862;2023-04-16T02:26:23;105.40;;;32.35;;
52866;SDS011;38739;53.324;6.862;2023-04-16T02:28:50;99.80;;;33.28;;
52866;SDS011;38739;53.324;6.862;2023-04-16T02:31:16;112.30;;;34.63;;
52866;SDS011;38739;53.324;6.862;2023-04-16T02:33:43;126.88;;;36.40;;
52866;SDS011;38739;53.324;6.862;2023-04-16T02:36:09;125.85;;;35.38;;
52866;SDS011;38739;53.324;6.862;2023-04-16T02:38:36;102.80;;;32.60;;
52866;SDS011;38739;53.324;6.862;2023-04-16T02:41:02;79.50;;;29.83;;
52866;SDS011;38739;53.324;6.862;2023-04-16T02:43:28;104.63;;;31.35;;
52866;SDS011;38739;53.324;6.862;2023-04-16T02:45:54;91.60;;;30.58;;
52866;SDS011;38739;53.324;6.862;2023-04-16T02:48:19;117.43;;;33.65;;
52866;SDS011;38739;53.324;6.862;2023-04-16T02:50:45;101.97;;;32.40;;
52866;SDS011;38739;53.324;6.862;2023-04-16T02:53:11;81.15;;;30.25;;
52866;SDS011;38739;53.324;6.862;2023-04-16T02:55:36;75.05;;;29.85;;
52866;SDS011;38739;53.324;6.862;2023-04-16T02:58:02;124.60;;;33.03;;
52866;SDS011;38739;53.324;6.862;2023-04-16T03:00:28;116.10;;;33.70;;
52866;SDS011;38739;53.324;6.862;2023-04-16T03:02:53;102.75;;;32.10;;
52866;SDS011;38739;53.324;6.862;2023-04-16T03:05:19;83.65;;;31.33;;
52866;SDS011;38739;53.324;6.862;2023-04-16T03:07:45;94.90;;;32.78;;
52866;SDS011;38739;53.324;6.862;2023-04-16T03:10:11;105.28;;;34.03;;
52866;SDS011;38739;53.324;6.862;2023-04-16T03:12:38;87.95;;;31.23;;
52866;SDS011;38739;53.324;6.862;2023-04-16T03:15:03;92.25;;;31.40;;
52866;SDS011;38739;53.324;6.862;2023-04-16T03:17:29;99.55;;;33.17;;
52866;SDS011;38739;53.324;6.862;2023-04-16T03:19:55;88.35;;;30.98;;
52866;SDS011;38739;53.324;6.862;2023-04-16T03:22:21;83.22;;;31.20;;
52866;SDS011;38739;53.324;6.862;2023-04-16T03:24:47;70.75;;;29.02;;
52866;SDS011;38739;53.324;6.862;2023-04-16T03:27:12;71.72;;;29.25;;
52866;SDS011;38739;53.324;6.862;2023-04-16T03:29:38;68.03;;;28.83;;
52866;SDS011;38739;53.324;6.862;2023-04-16T03:32:03;87.57;;;31.30;;
52866;SDS011;38739;53.324;6.862;2023-04-16T03:34:29;76.07;;;30.55;;
52866;SDS011;38739;53.324;6.862;2023-04-16T03:36:55;84.03;;;29.42;;
52866;SDS011;38739;53.324;6.862;2023-04-16T03:39:21;68.60;;;28.80;;
52866;SDS011;38739;53.324;6.862;2023-04-16T03:41:46;74.97;;;29.73;;
52866;SDS011;38739;53.324;6.862;2023-04-16T03:44:12;90.80;;;32.53;;
52866;SDS011;38739;53.324;6.862;2023-04-16T03:46:37;74.68;;;28.50;;
52866;SDS011;38739;53.324;6.862;2023-04-16T03:49:03;67.50;;;28.58;;
52866;SDS011;38739;53.324;6.862;2023-04-16T03:51:29;71.43;;;29.40;;
52866;SDS011;38739;53.324;6.862;2023-04-16T03:53:54;72.75;;;30.25;;
52866;SDS011;38739;53.324;6.862;2023-04-16T03:56:20;76.13;;;28.63;;
52866;SDS011;38739;53.324;6.862;2023-04-16T03:58:46;87.90;;;30.90;;
52866;SDS011;38739;53.324;6.862;2023-04-16T04:01:12;64.53;;;27.65;;
52866;SDS011;38739;53.324;6.862;2023-04-16T04:03:37;76.68;;;28.98;;
52866;SDS011;38739;53.324;6.862;2023-04-16T04:06:06;60.05;;;27.58;;
52866;SDS011;38739;53.324;6.862;2023-04-16T04:08:33;83.32;;;29.23;;
52866;SDS011;38739;53.324;6.862;2023-04-16T04:10:58;77.95;;;28.80;;
52866;SDS011;38739;53.324;6.862;2023-04-16T04:13:24;58.97;;;25.08;;
52866;SDS011;38739;53.324;6.862;2023-04-16T04:15:51;63.72;;;26.52;;
52866;SDS011;38739;53.324;6.862;2023-04-16T04:18:16;64.85;;;26.77;;
52866;SDS011;38739;53.324;6.862;2023-04-16T04:20:43;63.92;;;26.92;;
52866;SDS011;38739;53.324;6.862;2023-04-16T04:23:09;60.40;;;25.42;;
52866;SDS011;38739;53.324;6.862;2023-04-16T04:25:34;60.92;;;25.10;;
52866;SDS011;38739;53.324;6.862;2023-04-16T04:28:00;58.88;;;25.38;;
52866;SDS011;38739;53.324;6.862;2023-04-16T04:30:26;50.00;;;22.75;;
52866;SDS011;38739;53.324;6.862;2023-04-16T04:32:56;59.42;;;26.42;;
52866;SDS011;38739;53.324;6.862;2023-04-16T04:35:22;68.70;;;26.02;;
52866;SDS011;38739;53.324;6.862;2023-04-16T04:37:48;48.33;;;24.20;;
52866;SDS011;38739;53.324;6.862;2023-04-16T04:40:13;54.33;;;24.08;;
52866;SDS011;38739;53.324;6.862;2023-04-16T04:42:39;52.55;;;25.92;;
52866;SDS011;38739;53.324;6.862;2023-04-16T04:45:05;53.67;;;25.38;;
52866;SDS011;38739;53.324;6.862;2023-04-16T04:47:31;42.08;;;23.35;;
52866;SDS011;38739;53.324;6.862;2023-04-16T04:49:57;49.15;;;24.13;;
52866;SDS011;38739;53.324;6.862;2023-04-16T04:52:23;54.05;;;24.83;;
52866;SDS011;38739;53.324;6.862;2023-04-16T04:54:48;45.17;;;24.13;;
52866;SDS011;38739;53.324;6.862;2023-04-16T04:57:14;49.83;;;23.95;;
52866;SDS011;38739;53.324;6.862;2023-04-16T04:59:40;51.53;;;24.85;;
52866;SDS011;38739;53.324;6.862;2023-04-16T05:02:06;48.20;;;23.38;;
52866;SDS011;38739;53.324;6.862;2023-04-16T05:04:31;46.70;;;23.52;;
52866;SDS011;38739;53.324;6.862;2023-04-16T05:06:57;50.22;;;23.67;;
52866;SDS011;38739;53.324;6.862;2023-04-16T05:09:22;50.58;;;24.15;;
52866;SDS011;38739;53.324;6.862;2023-04-16T05:11:48;42.15;;;22.05;;
52866;SDS011;38739;53.324;6.862;2023-04-16T05:14:15;48.50;;;24.45;;
52866;SDS011;38739;53.324;6.862;2023-04-16T05:16:40;51.88;;;24.98;;
52866;SDS011;38739;53.324;6.862;2023-04-16T05:19:06;43.05;;;23.25;;
52866;SDS011;38739;53.324;6.862;2023-04-16T05:21:32;57.00;;;27.20;;
52866;SDS011;38739;53.324;6.862;2023-04-16T05:23:58;59.97;;;27.80;;
52866;SDS011;38739;53.324;6.862;2023-04-16T05:26:24;55.15;;;24.50;;
52866;SDS011;38739;53.324;6.862;2023-04-16T05:28:49;51.53;;;26.48;;
52866;SDS011;38739;53.324;6.862;2023-04-16T05:31:15;66.13;;;29.05;;
52866;SDS011;38739;53.324;6.862;2023-04-16T05:33:41;51.30;;;26.52;;
52866;SDS011;38739;53.324;6.862;2023-04-16T05:36:06;52.38;;;27.15;;
52866;SDS011;38739;53.324;6.862;2023-04-16T05:38:32;55.92;;;27.40;;
52866;SDS011;38739;53.324;6.862;2023-04-16T05:40:58;62.20;;;28.33;;
52866;SDS011;38739;53.324;6.862;2023-04-16T05:43:23;64.72;;;29.80;;
52866;SDS011;38739;53.324;6.862;2023-04-16T05:45:49;68.47;;;30.48;;
52866;SDS011;38739;53.324;6.862;2023-04-16T05:48:15;60.42;;;28.73;;
52866;SDS011;38739;53.324;6.862;2023-04-16T05:50:40;55.30;;;28.73;;
52866;SDS011;38739;53.324;6.862;2023-04-16T05:53:07;56.97;;;29.38;;
52866;SDS011;38739;53.324;6.862;2023-04-16T05:55:33;72.90;;;32.13;;
52866;SDS011;38739;53.324;6.862;2023-04-16T05:58:01;58.92;;;30.33;;
52866;SDS011;38739;53.324;6.862;2023-04-16T06:00:28;66.40;;;32.15;;
52866;SDS011;38739;53.324;6.862;2023-04-16T06:02:55;71.32;;;31.88;;
52866;SDS011;38739;53.324;6.862;2023-04-16T06:05:20;59.40;;;30.25;;
52866;SDS011;38739;53.324;6.862;2023-04-16T06:07:46;64.32;;;30.80;;
52866;SDS011;38739;53.324;6.862;2023-04-16T06:10:12;66.35;;;31.42;;
52866;SDS011;38739;53.324;6.862;2023-04-16T06:12:37;63.97;;;31.63;;
52866;SDS011;38739;53.324;6.862;2023-04-16T06:15:03;62.28;;;29.95;;
52866;SDS011;38739;53.324;6.862;2023-04-16T06:17:29;61.97;;;29.40;;
52866;SDS011;38739;53.324;6.862;2023-04-16T06:19:55;72.40;;;31.65;;
52866;SDS011;38739;53.324;6.862;2023-04-16T06:22:21;72.20;;;31.70;;
52866;SDS011;38739;53.324;6.862;2023-04-16T06:24:46;81.15;;;32.17;;
52866;SDS011;38739;53.324;6.862;2023-04-16T06:27:12;81.85;;;31.73;;
52866;SDS011;38739;53.324;6.862;2023-04-16T06:29:38;83.55;;;32.60;;
52866;SDS011;38739;53.324;6.862;2023-04-16T06:32:03;90.50;;;34.35;;
52866;SDS011;38739;53.324;6.862;2023-04-16T06:34:29;82.55;;;32.08;;
52866;SDS011;38739;53.324;6.862;2023-04-16T06:36:55;84.22;;;31.63;;
52866;SDS011;38739;53.324;6.862;2023-04-16T06:39:21;79.18;;;34.38;;
52866;SDS011;38739;53.324;6.862;2023-04-16T06:41:47;78.00;;;31.10;;
52866;SDS011;38739;53.324;6.862;2023-04-16T06:44:13;79.80;;;32.53;;
52866;SDS011;38739;53.324;6.862;2023-04-16T06:46:39;92.78;;;35.03;;
52866;SDS011;38739;53.324;6.862;2023-04-16T06:49:05;80.60;;;33.30;;
52866;SDS011;38739;53.324;6.862;2023-04-16T06:51:31;78.65;;;31.40;;
52866;SDS011;38739;53.324;6.862;2023-04-16T06:53:57;68.03;;;31.75;;
52866;SDS011;38739;53.324;6.862;2023-04-16T06:56:22;83.32;;;32.92;;
52866;SDS011;38739;53.324;6.862;2023-04-16T06:58:49;76.82;;;32.10;;
52866;SDS011;38739;53.324;6.862;2023-04-16T07:01:15;81.35;;;32.00;;
52866;SDS011;38739;53.324;6.862;2023-04-16T07:03:41;68.82;;;30.58;;
52866;SDS011;38739;53.324;6.862;2023-04-16T07:06:08;74.07;;;31.83;;
52866;SDS011;38739;53.324;6.862;2023-04-16T07:08:34;80.90;;;32.53;;
52866;SDS011;38739;53.324;6.862;2023-04-16T07:11:00;67.30;;;31.20;;
52866;SDS011;38739;53.324;6.862;2023-04-16T07:13:26;84.97;;;30.90;;
52866;SDS011;38739;53.324;6.862;2023-04-16T07:15:52;73.75;;;31.67;;
52866;SDS011;38739;53.324;6.862;2023-04-16T07:18:18;79.40;;;31.52;;
52866;SDS011;38739;53.324;6.862;2023-04-16T07:20:44;69.80;;;31.58;;
52866;SDS011;38739;53.324;6.862;2023-04-16T07:23:10;78.50;;;32.22;;
52866;SDS011;38739;53.324;6.862;2023-04-16T07:25:35;65.22;;;30.67;;
52866;SDS011;38739;53.324;6.862;2023-04-16T07:28:01;74.38;;;30.73;;
52866;SDS011;38739;53.324;6.862;2023-04-16T07:30:27;75.20;;;30.33;;
52866;SDS011;38739;53.324;6.862;2023-04-16T07:32:58;73.70;;;31.45;;
52866;SDS011;38739;53.324;6.862;2023-04-16T07:35:25;77.75;;;29.88;;
52866;SDS011;38739;53.324;6.862;2023-04-16T07:37:50;70.57;;;31.08;;
52866;SDS011;38739;53.324;6.862;2023-04-16T07:40:16;68.45;;;30.92;;
52866;SDS011;38739;53.324;6.862;2023-04-16T07:42:42;72.30;;;30.63;;
52866;SDS011;38739;53.324;6.862;2023-04-16T07:45:07;69.88;;;30.10;;
52866;SDS011;38739;53.324;6.862;2023-04-16T07:47:33;58.75;;;27.75;;
52866;SDS011;38739;53.324;6.862;2023-04-16T07:49:59;62.35;;;27.48;;
52866;SDS011;38739;53.324;6.862;2023-04-16T07:52:25;67.55;;;27.40;;
52866;SDS011;38739;53.324;6.862;2023-04-16T07:54:50;65.80;;;26.17;;
52866;SDS011;38739;53.324;6.862;2023-04-16T07:57:16;64.53;;;27.30;;
52866;SDS011;38739;53.324;6.862;2023-04-16T07:59:42;57.08;;;25.17;;
52866;SDS011;38739;53.324;6.862;2023-04-16T08:02:08;53.88;;;25.75;;
52866;SDS011;38739;53.324;6.862;2023-04-16T08:04:39;52.75;;;24.73;;
52866;SDS011;38739;53.324;6.862;2023-04-16T08:07:05;49.08;;;23.58;;
52866;SDS011;38739;53.324;6.862;2023-04-16T08:09:31;51.85;;;22.70;;
52866;SDS011;38739;53.324;6.862;2023-04-16T08:11:58;51.85;;;22.88;;
52866;SDS011;38739;53.324;6.862;2023-04-16T08:14:24;48.22;;;23.02;;
52866;SDS011;38739;53.324;6.862;2023-04-16T08:16:50;48.95;;;22.52;;
52866;SDS011;38739;53.324;6.862;2023-04-16T08:19:16;47.95;;;23.15;;
52866;SDS011;38739;53.324;6.862;2023-04-16T08:21:41;44.05;;;21.75;;
52866;SDS011;38739;53.324;6.862;2023-04-16T08:24:07;42.05;;;20.83;;
52866;SDS011;38739;53.324;6.862;2023-04-16T08:26:33;49.65;;;21.80;;
52866;SDS011;38739;53.324;6.862;2023-04-16T08:28:59;47.75;;;20.70;;
52866;SDS011;38739;53.324;6.862;2023-04-16T08:31:25;39.85;;;20.20;;
52866;SDS011;38739;53.324;6.862;2023-04-16T08:33:50;38.92;;;19.63;;
52866;SDS011;38739;53.324;6.862;2023-04-16T08:36:16;44.60;;;20.48;;
52866;SDS011;38739;53.324;6.862;2023-04-16T08:38:42;37.30;;;19.65;;
52866;SDS011;38739;53.324;6.862;2023-04-16T08:41:08;39.50;;;19.85;;
52866;SDS011;38739;53.324;6.862;2023-04-16T08:43:37;34.33;;;18.05;;
52866;SDS011;38739;53.324;6.862;2023-04-16T08:46:06;34.30;;;19.42;;
52866;SDS011;38739;53.324;6.862;2023-04-16T08:48:33;32.15;;;18.55;;
52866;SDS011;38739;53.324;6.862;2023-04-16T08:51:00;38.38;;;20.13;;
52866;SDS011;38739;53.324;6.862;2023-04-16T08:53:40;35.80;;;18.73;;
52866;SDS011;38739;53.324;6.862;2023-04-16T08:56:28;33.45;;;18.25;;
52866;SDS011;38739;53.324;6.862;2023-04-16T08:58:55;35.28;;;18.58;;
52866;SDS011;38739;53.324;6.862;2023-04-16T09:01:23;36.22;;;18.60;;
52866;SDS011;38739;53.324;6.862;2023-04-16T09:03:52;28.88;;;17.27;;
52866;SDS011;38739;53.324;6.862;2023-04-16T09:06:18;32.88;;;17.40;;
52866;SDS011;38739;53.324;6.862;2023-04-16T09:08:44;31.98;;;18.13;;
52866;SDS011;38739;53.324;6.862;2023-04-16T09:11:12;30.92;;;18.00;;
52866;SDS011;38739;53.324;6.862;2023-04-16T09:13:38;29.00;;;16.83;;
52866;SDS011;38739;53.324;6.862;2023-04-16T09:16:04;32.28;;;17.67;;
52866;SDS011;38739;53.324;6.862;2023-04-16T09:18:31;31.80;;;17.63;;
52866;SDS011;38739;53.324;6.862;2023-04-16T09:20:57;28.92;;;16.98;;
52866;SDS011;38739;53.324;6.862;2023-04-16T09:23:23;29.60;;;17.15;;
52866;SDS011;38739;53.324;6.862;2023-04-16T09:25:49;28.30;;;17.35;;
52866;SDS011;38739;53.324;6.862;2023-04-16T09:31:20;30.23;;;17.42;;
52866;SDS011;38739;53.324;6.862;2023-04-16T09:36:27;26.45;;;16.23;;
52866;SDS011;38739;53.324;6.862;2023-04-16T09:38:53;26.98;;;16.27;;
52866;SDS011;38739;53.324;6.862;2023-04-16T09:41:23;23.63;;;15.98;;
52866;SDS011;38739;53.324;6.862;2023-04-16T09:46:22;22.80;;;15.80;;
52866;SDS011;38739;53.324;6.862;2023-04-16T09:48:48;25.30;;;16.58;;
52866;SDS011;38739;53.324;6.862;2023-04-16T09:51:14;25.80;;;16.17;;
52866;SDS011;38739;53.324;6.862;2023-04-16T09:53:40;25.42;;;15.15;;
52866;SDS011;38739;53.324;6.862;2023-04-16T09:56:05;23.23;;;15.38;;
52866;SDS011;38739;53.324;6.862;2023-04-16T09:58:31;23.08;;;15.77;;
52866;SDS011;38739;53.324;6.862;2023-04-16T10:01:01;24.60;;;15.75;;
52866;SDS011;38739;53.324;6.862;2023-04-16T10:03:31;27.85;;;15.90;;
52866;SDS011;38739;53.324;6.862;2023-04-16T10:06:17;27.20;;;16.15;;
52866;SDS011;38739;53.324;6.862;2023-04-16T10:08:47;22.80;;;15.20;;
52866;SDS011;38739;53.324;6.862;2023-04-16T10:11:14;23.83;;;14.98;;
52866;SDS011;38739;53.324;6.862;2023-04-16T10:13:40;23.75;;;15.10;;
52866;SDS011;38739;53.324;6.862;2023-04-16T10:16:06;22.67;;;14.93;;
52866;SDS011;38739;53.324;6.862;2023-04-16T10:18:37;23.95;;;15.15;;
52866;SDS011;38739;53.324;6.862;2023-04-16T10:21:04;21.25;;;14.27;;
52866;SDS011;38739;53.324;6.862;2023-04-16T10:23:31;25.67;;;15.45;;
52866;SDS011;38739;53.324;6.862;2023-04-16T10:25:58;22.55;;;14.93;;
52866;SDS011;38739;53.324;6.862;2023-04-16T10:28:25;24.90;;;14.65;;
52866;SDS011;38739;53.324;6.862;2023-04-16T10:30:55;22.85;;;14.20;;
52866;SDS011;38739;53.324;6.862;2023-04-16T10:33:26;25.23;;;14.82;;
52866;SDS011;38739;53.324;6.862;2023-04-16T10:36:10;24.00;;;13.53;;
52866;SDS011;38739;53.324;6.862;2023-04-16T10:38:51;22.27;;;13.75;;
52866;SDS011;38739;53.324;6.862;2023-04-16T10:41:20;23.33;;;13.80;;
52866;SDS011;38739;53.324;6.862;2023-04-16T10:43:47;23.92;;;13.85;;
52866;SDS011;38739;53.324;6.862;2023-04-16T10:46:23;26.75;;;14.00;;
52866;SDS011;38739;53.324;6.862;2023-04-16T10:48:53;24.80;;;14.48;;
52866;SDS011;38739;53.324;6.862;2023-04-16T10:51:24;23.65;;;13.75;;
52866;SDS011;38739;53.324;6.862;2023-04-16T10:54:34;22.85;;;14.32;;
52866;SDS011;38739;53.324;6.862;2023-04-16T10:56:42;26.42;;;14.43;;
52866;SDS011;38739;53.324;6.862;2023-04-16T10:59:10;26.58;;;14.63;;
52866;SDS011;38739;53.324;6.862;2023-04-16T11:01:40;26.88;;;14.60;;
52866;SDS011;38739;53.324;6.862;2023-04-16T11:12:25;27.80;;;17.13;;
52866;SDS011;38739;53.324;6.862;2023-04-16T11:15:05;25.23;;;16.63;;
52866;SDS011;38739;53.324;6.862;2023-04-16T11:17:33;28.08;;;17.05;;
52866;SDS011;38739;53.324;6.862;2023-04-16T11:20:05;26.85;;;16.73;;
52866;SDS011;38739;53.324;6.862;2023-04-16T11:22:36;27.23;;;16.45;;
52866;SDS011;38739;53.324;6.862;2023-04-16T11:25:02;25.00;;;17.02;;
52866;SDS011;38739;53.324;6.862;2023-04-16T11:27:29;25.75;;;17.25;;
52866;SDS011;38739;53.324;6.862;2023-04-16T11:29:56;24.17;;;17.23;;
52866;SDS011;38739;53.324;6.862;2023-04-16T11:32:26;27.55;;;18.05;;
52866;SDS011;38739;53.324;6.862;2023-04-16T11:34:55;28.73;;;18.88;;
52866;SDS011;38739;53.324;6.862;2023-04-16T11:37:21;32.45;;;18.65;;
52866;SDS011;38739;53.324;6.862;2023-04-16T11:39:57;28.13;;;18.45;;
52866;SDS011;38739;53.324;6.862;2023-04-16T11:42:23;29.70;;;18.30;;
52866;SDS011;38739;53.324;6.862;2023-04-16T11:44:52;28.80;;;17.73;;
52866;SDS011;38739;53.324;6.862;2023-04-16T11:47:19;29.08;;;18.13;;
52866;SDS011;38739;53.324;6.862;2023-04-16T11:49:45;29.30;;;18.20;;
52866;SDS011;38739;53.324;6.862;2023-04-16T11:52:11;30.95;;;18.90;;
52866;SDS011;38739;53.324;6.862;2023-04-16T11:54:37;27.67;;;18.48;;
52866;SDS011;38739;53.324;6.862;2023-04-16T11:57:02;27.63;;;17.90;;
52866;SDS011;38739;53.324;6.862;2023-04-16T11:59:28;30.27;;;19.88;;
52866;SDS011;38739;53.324;6.862;2023-04-16T12:01:55;27.42;;;18.05;;
52866;SDS011;38739;53.324;6.862;2023-04-16T12:04:21;27.42;;;18.08;;
52866;SDS011;38739;53.324;6.862;2023-04-16T12:07:05;27.90;;;17.40;;
52866;SDS011;38739;53.324;6.862;2023-04-16T12:09:31;31.83;;;18.75;;
52866;SDS011;38739;53.324;6.862;2023-04-16T12:11:59;31.80;;;18.92;;
52866;SDS011;38739;53.324;6.862;2023-04-16T12:14:25;26.60;;;17.70;;
52866;SDS011;38739;53.324;6.862;2023-04-16T12:16:51;24.58;;;17.25;;
52866;SDS011;38739;53.324;6.862;2023-04-16T12:19:17;26.30;;;17.83;;
52866;SDS011;38739;53.324;6.862;2023-04-16T12:24:10;26.63;;;19.00;;
52866;SDS011;38739;53.324;6.862;2023-04-16T12:26:44;27.80;;;18.52;;
52866;SDS011;38739;53.324;6.862;2023-04-16T12:29:19;32.50;;;19.35;;
52866;SDS011;38739;53.324;6.862;2023-04-16T12:31:50;29.60;;;19.27;;
52866;SDS011;38739;53.324;6.862;2023-04-16T12:34:17;29.83;;;19.20;;
52866;SDS011;38739;53.324;6.862;2023-04-16T12:36:44;28.40;;;19.58;;
52866;SDS011;38739;53.324;6.862;2023-04-16T12:39:12;29.92;;;19.35;;
52866;SDS011;38739;53.324;6.862;2023-04-16T12:41:39;28.10;;;19.08;;
52866;SDS011;38739;53.324;6.862;2023-04-16T12:44:07;29.02;;;18.67;;
52866;SDS011;38739;53.324;6.862;2023-04-16T12:46:39;27.10;;;18.85;;
52866;SDS011;38739;53.324;6.862;2023-04-16T12:49:06;27.23;;;17.77;;
52866;SDS011;38739;53.324;6.862;2023-04-16T12:51:33;29.08;;;18.83;;
52866;SDS011;38739;53.324;6.862;2023-04-16T12:53:59;25.55;;;18.27;;
52866;SDS011;38739;53.324;6.862;2023-04-16T12:56:26;30.75;;;18.10;;
52866;SDS011;38739;53.324;6.862;2023-04-16T12:58:52;27.55;;;19.00;;
52866;SDS011;38739;53.324;6.862;2023-04-16T13:01:17;27.45;;;18.40;;
52866;SDS011;38739;53.324;6.862;2023-04-16T13:03:44;31.98;;;18.48;;
52866;SDS011;38739;53.324;6.862;2023-04-16T13:06:10;34.50;;;18.65;;
52866;SDS011;38739;53.324;6.862;2023-04-16T13:08:37;30.48;;;17.83;;
52866;SDS011;38739;53.324;6.862;2023-04-16T13:11:03;28.98;;;17.58;;
52866;SDS011;38739;53.324;6.862;2023-04-16T13:13:30;26.85;;;17.30;;
52866;SDS011;38739;53.324;6.862;2023-04-16T13:15:56;32.10;;;17.45;;
52866;SDS011;38739;53.324;6.862;2023-04-16T13:18:21;31.38;;;17.70;;
52866;SDS011;38739;53.324;6.862;2023-04-16T13:20:47;33.75;;;18.23;;
52866;SDS011;38739;53.324;6.862;2023-04-16T13:23:13;31.70;;;17.02;;
52866;SDS011;38739;53.324;6.862;2023-04-16T13:25:39;32.97;;;17.73;;
52866;SDS011;38739;53.324;6.862;2023-04-16T13:28:04;29.80;;;17.20;;
52866;SDS011;38739;53.324;6.862;2023-04-16T13:30:30;29.55;;;17.40;;
52866;SDS011;38739;53.324;6.862;2023-04-16T13:32:57;29.65;;;17.25;;
52866;SDS011;38739;53.324;6.862;2023-04-16T13:35:23;33.75;;;17.30;;
52866;SDS011;38739;53.324;6.862;2023-04-16T13:37:50;32.20;;;16.88;;
52866;SDS011;38739;53.324;6.862;2023-04-16T13:40:15;26.65;;;15.68;;
52866;SDS011;38739;53.324;6.862;2023-04-16T13:42:41;30.70;;;17.10;;
52866;SDS011;38739;53.324;6.862;2023-04-16T13:45:07;26.50;;;15.70;;
52866;SDS011;38739;53.324;6.862;2023-04-16T13:47:37;27.52;;;16.20;;
52866;SDS011;38739;53.324;6.862;2023-04-16T13:50:05;26.05;;;15.82;;
52866;SDS011;38739;53.324;6.862;2023-04-16T13:52:31;26.00;;;15.10;;
52866;SDS011;38739;53.324;6.862;2023-04-16T13:54:57;27.73;;;15.30;;
52866;SDS011;38739;53.324;6.862;2023-04-16T13:57:23;25.90;;;15.20;;
52866;SDS011;38739;53.324;6.862;2023-04-16T13:59:48;28.35;;;15.27;;
52866;SDS011;38739;53.324;6.862;2023-04-16T14:02:14;26.27;;;15.23;;
52866;SDS011;38739;53.324;6.862;2023-04-16T14:04:40;24.25;;;15.43;;
52866;SDS011;38739;53.324;6.862;2023-04-16T14:07:06;28.00;;;15.75;;
52866;SDS011;38739;53.324;6.862;2023-04-16T14:09:31;20.45;;;13.63;;
52866;SDS011;38739;53.324;6.862;2023-04-16T14:11:57;24.50;;;14.98;;
52866;SDS011;38739;53.324;6.862;2023-04-16T14:14:23;26.92;;;15.60;;
52866;SDS011;38739;53.324;6.862;2023-04-16T14:16:49;22.92;;;14.20;;
52866;SDS011;38739;53.324;6.862;2023-04-16T14:19:15;22.75;;;13.68;;
52866;SDS011;38739;53.324;6.862;2023-04-16T14:21:41;26.38;;;14.30;;
52866;SDS011;38739;53.324;6.862;2023-04-16T14:24:07;24.83;;;14.52;;
52866;SDS011;38739;53.324;6.862;2023-04-16T14:26:33;27.15;;;13.95;;
52866;SDS011;38739;53.324;6.862;2023-04-16T14:28:59;27.00;;;15.35;;
52866;SDS011;38739;53.324;6.862;2023-04-16T14:31:25;25.02;;;13.70;;
52866;SDS011;38739;53.324;6.862;2023-04-16T14:33:51;24.95;;;14.50;;
52866;SDS011;38739;53.324;6.862;2023-04-16T14:36:16;23.05;;;14.68;;